Terminal Aerodrome Forecast
Issued by NWS Caribou, ME

Home | Current Version | Previous Version | Text Only | Print | Product List | Glossary On
Versions: 1 2 3 4 5 6 7 8 9 10 11 12 13 14
000
FTUS41 KCAR 312331
TAFBGR
TAF
KBGR 312331Z 0100/0124 21004KT P6SM VCSH BKN040
     FM010600 VRB03KT 5SM BR BKN020
     FM010900 VRB03KT 3SM BR BKN015
     FM011200 VRB03KT P6SM BKN025
     FM011400 34005KT P6SM BKN035=

USA.gov is the U.S. government's official web portal to all federal, state and local government web resources and services.